sensor_id;sensor_type;location;lat;lon;timestamp;P1;durP1;ratioP1;P2;durP2;ratioP2
5519;SDS011;2782;52.362;10.012;2023-04-24T00:00:28;27.50;;;12.93;;
5519;SDS011;2782;52.362;10.012;2023-04-24T00:01:31;27.50;;;12.32;;
5519;SDS011;2782;52.362;10.012;2023-04-24T00:02:31;23.10;;;11.80;;
5519;SDS011;2782;52.362;10.012;2023-04-24T00:03:35;23.60;;;12.55;;
5519;SDS011;2782;52.362;10.012;2023-04-24T00:04:36;23.70;;;12.65;;
5519;SDS011;2782;52.362;10.012;2023-04-24T00:05:41;27.90;;;13.57;;
5519;SDS011;2782;52.362;10.012;2023-04-24T00:06:41;24.87;;;11.80;;
5519;SDS011;2782;52.362;10.012;2023-04-24T00:07:43;27.02;;;11.80;;
5519;SDS011;2782;52.362;10.012;2023-04-24T00:08:44;26.90;;;12.85;;
5519;SDS011;2782;52.362;10.012;2023-04-24T00:09:46;20.05;;;11.50;;
5519;SDS011;2782;52.362;10.012;2023-04-24T00:10:47;24.43;;;13.03;;
5519;SDS011;2782;52.362;10.012;2023-04-24T00:11:48;24.23;;;12.68;;
5519;SDS011;2782;52.362;10.012;2023-04-24T00:12:49;25.17;;;12.27;;
5519;SDS011;2782;52.362;10.012;2023-04-24T00:13:50;20.25;;;10.38;;
5519;SDS011;2782;52.362;10.012;2023-04-24T00:14:51;25.10;;;12.60;;
5519;SDS011;2782;52.362;10.012;2023-04-24T00:15:53;23.70;;;11.52;;
5519;SDS011;2782;52.362;10.012;2023-04-24T00:16:53;21.30;;;11.40;;
5519;SDS011;2782;52.362;10.012;2023-04-24T00:17:55;22.38;;;11.38;;
5519;SDS011;2782;52.362;10.012;2023-04-24T00:18:57;22.17;;;11.70;;
5519;SDS011;2782;52.362;10.012;2023-04-24T00:20:00;22.77;;;11.35;;
5519;SDS011;2782;52.362;10.012;2023-04-24T00:21:04;24.52;;;12.45;;
5519;SDS011;2782;52.362;10.012;2023-04-24T00:22:06;26.15;;;12.38;;
5519;SDS011;2782;52.362;10.012;2023-04-24T00:23:07;22.60;;;11.85;;
5519;SDS011;2782;52.362;10.012;2023-04-24T00:24:09;23.85;;;11.80;;
5519;SDS011;2782;52.362;10.012;2023-04-24T00:25:09;27.47;;;12.20;;
5519;SDS011;2782;52.362;10.012;2023-04-24T00:26:11;20.33;;;11.65;;
5519;SDS011;2782;52.362;10.012;2023-04-24T00:27:12;21.43;;;10.83;;
5519;SDS011;2782;52.362;10.012;2023-04-24T00:28:13;23.08;;;12.32;;
5519;SDS011;2782;52.362;10.012;2023-04-24T00:29:14;20.50;;;10.10;;
5519;SDS011;2782;52.362;10.012;2023-04-24T00:30:15;20.27;;;10.93;;
5519;SDS011;2782;52.362;10.012;2023-04-24T00:31:16;17.33;;;10.40;;
5519;SDS011;2782;52.362;10.012;2023-04-24T00:32:19;18.52;;;10.30;;
5519;SDS011;2782;52.362;10.012;2023-04-24T00:33:19;20.73;;;10.83;;
5519;SDS011;2782;52.362;10.012;2023-04-24T00:34:22;18.88;;;10.70;;
5519;SDS011;2782;52.362;10.012;2023-04-24T00:35:23;21.45;;;10.63;;
5519;SDS011;2782;52.362;10.012;2023-04-24T00:36:25;21.98;;;10.93;;
5519;SDS011;2782;52.362;10.012;2023-04-24T00:37:27;24.65;;;11.25;;
5519;SDS011;2782;52.362;10.012;2023-04-24T00:38:28;18.33;;;10.30;;
5519;SDS011;2782;52.362;10.012;2023-04-24T00:39:29;21.63;;;10.73;;
5519;SDS011;2782;52.362;10.012;2023-04-24T00:40:30;22.23;;;10.90;;
5519;SDS011;2782;52.362;10.012;2023-04-24T00:41:31;24.43;;;10.80;;
5519;SDS011;2782;52.362;10.012;2023-04-24T00:42:33;22.65;;;11.27;;
5519;SDS011;2782;52.362;10.012;2023-04-24T00:43:34;24.20;;;10.40;;
5519;SDS011;2782;52.362;10.012;2023-04-24T00:44:36;19.13;;;9.23;;
5519;SDS011;2782;52.362;10.012;2023-04-24T00:45:37;17.90;;;9.65;;
5519;SDS011;2782;52.362;10.012;2023-04-24T00:46:38;20.30;;;9.90;;
5519;SDS011;2782;52.362;10.012;2023-04-24T00:47:40;20.47;;;10.30;;
5519;SDS011;2782;52.362;10.012;2023-04-24T00:48:43;16.15;;;9.32;;
5519;SDS011;2782;52.362;10.012;2023-04-24T00:49:45;18.50;;;10.57;;
5519;SDS011;2782;52.362;10.012;2023-04-24T00:50:46;20.65;;;10.80;;
5519;SDS011;2782;52.362;10.012;2023-04-24T00:51:47;20.63;;;9.37;;
5519;SDS011;2782;52.362;10.012;2023-04-24T00:52:51;15.48;;;8.68;;
5519;SDS011;2782;52.362;10.012;2023-04-24T00:53:51;17.43;;;9.57;;
5519;SDS011;2782;52.362;10.012;2023-04-24T00:54:53;16.77;;;9.13;;
5519;SDS011;2782;52.362;10.012;2023-04-24T00:55:54;16.10;;;9.18;;
5519;SDS011;2782;52.362;10.012;2023-04-24T00:56:56;17.65;;;9.15;;
5519;SDS011;2782;52.362;10.012;2023-04-24T00:57:57;18.50;;;9.97;;
5519;SDS011;2782;52.362;10.012;2023-04-24T00:59:00;18.73;;;9.18;;
5519;SDS011;2782;52.362;10.012;2023-04-24T01:00:01;18.10;;;9.63;;
5519;SDS011;2782;52.362;10.012;2023-04-24T01:01:03;18.40;;;8.82;;
5519;SDS011;2782;52.362;10.012;2023-04-24T01:02:06;16.33;;;9.35;;
5519;SDS011;2782;52.362;10.012;2023-04-24T01:03:08;14.52;;;8.48;;
5519;SDS011;2782;52.362;10.012;2023-04-24T01:04:11;16.73;;;8.65;;
5519;SDS011;2782;52.362;10.012;2023-04-24T01:05:14;19.52;;;8.90;;
5519;SDS011;2782;52.362;10.012;2023-04-24T01:06:17;15.48;;;9.32;;
5519;SDS011;2782;52.362;10.012;2023-04-24T01:07:20;14.30;;;8.70;;
5519;SDS011;2782;52.362;10.012;2023-04-24T01:08:21;18.50;;;9.45;;
5519;SDS011;2782;52.362;10.012;2023-04-24T01:09:24;15.15;;;8.85;;
5519;SDS011;2782;52.362;10.012;2023-04-24T01:10:25;15.30;;;8.73;;
5519;SDS011;2782;52.362;10.012;2023-04-24T01:11:30;14.57;;;8.48;;
5519;SDS011;2782;52.362;10.012;2023-04-24T01:12:31;15.50;;;8.65;;
5519;SDS011;2782;52.362;10.012;2023-04-24T01:13:34;15.32;;;8.70;;
5519;SDS011;2782;52.362;10.012;2023-04-24T01:14:34;16.08;;;8.82;;
5519;SDS011;2782;52.362;10.012;2023-04-24T01:15:37;16.90;;;9.07;;
5519;SDS011;2782;52.362;10.012;2023-04-24T01:16:38;14.63;;;9.27;;
5519;SDS011;2782;52.362;10.012;2023-04-24T01:17:41;15.73;;;8.60;;
5519;SDS011;2782;52.362;10.012;2023-04-24T01:18:41;14.83;;;7.40;;
5519;SDS011;2782;52.362;10.012;2023-04-24T01:19:43;17.23;;;8.60;;
5519;SDS011;2782;52.362;10.012;2023-04-24T01:20:45;13.75;;;8.02;;
5519;SDS011;2782;52.362;10.012;2023-04-24T01:21:48;13.50;;;8.02;;
5519;SDS011;2782;52.362;10.012;2023-04-24T01:22:55;14.57;;;8.32;;
5519;SDS011;2782;52.362;10.012;2023-04-24T01:23:57;13.70;;;8.30;;
5519;SDS011;2782;52.362;10.012;2023-04-24T01:24:58;16.07;;;8.43;;
5519;SDS011;2782;52.362;10.012;2023-04-24T01:25:59;14.23;;;7.95;;
5519;SDS011;2782;52.362;10.012;2023-04-24T01:27:00;14.20;;;7.90;;
5519;SDS011;2782;52.362;10.012;2023-04-24T01:28:02;12.23;;;7.10;;
5519;SDS011;2782;52.362;10.012;2023-04-24T01:29:03;13.48;;;6.90;;
5519;SDS011;2782;52.362;10.012;2023-04-24T01:30:05;15.82;;;7.97;;
5519;SDS011;2782;52.362;10.012;2023-04-24T01:31:07;12.15;;;6.80;;
5519;SDS011;2782;52.362;10.012;2023-04-24T01:32:09;12.95;;;7.78;;
5519;SDS011;2782;52.362;10.012;2023-04-24T01:33:10;15.40;;;8.33;;
5519;SDS011;2782;52.362;10.012;2023-04-24T01:34:12;13.13;;;6.90;;
5519;SDS011;2782;52.362;10.012;2023-04-24T01:35:13;12.65;;;7.00;;
5519;SDS011;2782;52.362;10.012;2023-04-24T01:36:14;11.52;;;6.38;;
5519;SDS011;2782;52.362;10.012;2023-04-24T01:37:16;13.23;;;7.20;;
5519;SDS011;2782;52.362;10.012;2023-04-24T01:38:19;14.00;;;6.85;;
5519;SDS011;2782;52.362;10.012;2023-04-24T01:39:20;13.02;;;7.00;;
5519;SDS011;2782;52.362;10.012;2023-04-24T01:40:23;12.98;;;7.13;;
5519;SDS011;2782;52.362;10.012;2023-04-24T01:41:23;15.00;;;7.90;;
5519;SDS011;2782;52.362;10.012;2023-04-24T01:42:26;16.10;;;7.70;;
5519;SDS011;2782;52.362;10.012;2023-04-24T01:43:27;13.73;;;7.17;;
5519;SDS011;2782;52.362;10.012;2023-04-24T01:44:28;15.30;;;7.13;;
5519;SDS011;2782;52.362;10.012;2023-04-24T01:45:30;12.20;;;6.85;;
5519;SDS011;2782;52.362;10.012;2023-04-24T01:46:32;14.85;;;7.95;;
5519;SDS011;2782;52.362;10.012;2023-04-24T01:47:34;10.80;;;6.30;;
5519;SDS011;2782;52.362;10.012;2023-04-24T01:48:36;11.43;;;6.45;;
5519;SDS011;2782;52.362;10.012;2023-04-24T01:49:37;12.97;;;6.17;;
5519;SDS011;2782;52.362;10.012;2023-04-24T01:50:39;12.13;;;7.53;;
5519;SDS011;2782;52.362;10.012;2023-04-24T01:51:40;12.53;;;7.13;;
5519;SDS011;2782;52.362;10.012;2023-04-24T01:52:41;10.02;;;6.78;;
5519;SDS011;2782;52.362;10.012;2023-04-24T01:53:44;8.57;;;5.60;;
5519;SDS011;2782;52.362;10.012;2023-04-24T01:54:45;12.25;;;6.85;;
5519;SDS011;2782;52.362;10.012;2023-04-24T01:55:46;12.70;;;6.27;;
5519;SDS011;2782;52.362;10.012;2023-04-24T01:56:47;14.07;;;7.07;;
5519;SDS011;2782;52.362;10.012;2023-04-24T01:57:48;9.60;;;5.70;;
5519;SDS011;2782;52.362;10.012;2023-04-24T01:58:50;11.65;;;6.40;;
5519;SDS011;2782;52.362;10.012;2023-04-24T01:59:52;12.13;;;6.38;;
5519;SDS011;2782;52.362;10.012;2023-04-24T02:00:55;11.57;;;6.13;;
5519;SDS011;2782;52.362;10.012;2023-04-24T02:01:56;11.60;;;6.25;;
5519;SDS011;2782;52.362;10.012;2023-04-24T02:02:58;12.90;;;5.95;;
5519;SDS011;2782;52.362;10.012;2023-04-24T02:03:59;12.87;;;6.70;;
5519;SDS011;2782;52.362;10.012;2023-04-24T02:05:00;12.35;;;6.70;;
5519;SDS011;2782;52.362;10.012;2023-04-24T02:06:01;11.17;;;6.43;;
5519;SDS011;2782;52.362;10.012;2023-04-24T02:07:03;14.45;;;6.47;;
5519;SDS011;2782;52.362;10.012;2023-04-24T02:08:03;8.10;;;4.87;;
5519;SDS011;2782;52.362;10.012;2023-04-24T02:09:06;9.88;;;5.40;;
5519;SDS011;2782;52.362;10.012;2023-04-24T02:10:08;10.95;;;6.20;;
5519;SDS011;2782;52.362;10.012;2023-04-24T02:11:10;8.38;;;5.30;;
5519;SDS011;2782;52.362;10.012;2023-04-24T02:12:11;14.17;;;6.00;;
5519;SDS011;2782;52.362;10.012;2023-04-24T02:13:13;10.13;;;5.88;;
5519;SDS011;2782;52.362;10.012;2023-04-24T02:14:13;11.13;;;5.20;;
5519;SDS011;2782;52.362;10.012;2023-04-24T02:15:15;9.48;;;5.65;;
5519;SDS011;2782;52.362;10.012;2023-04-24T02:16:16;10.40;;;5.50;;
5519;SDS011;2782;52.362;10.012;2023-04-24T02:17:18;9.77;;;5.32;;
5519;SDS011;2782;52.362;10.012;2023-04-24T02:18:19;10.00;;;5.90;;
5519;SDS011;2782;52.362;10.012;2023-04-24T02:19:22;10.70;;;5.63;;
5519;SDS011;2782;52.362;10.012;2023-04-24T02:20:23;16.00;;;5.70;;
5519;SDS011;2782;52.362;10.012;2023-04-24T02:21:25;9.82;;;4.93;;
5519;SDS011;2782;52.362;10.012;2023-04-24T02:22:25;7.80;;;4.83;;
5519;SDS011;2782;52.362;10.012;2023-04-24T02:23:27;13.23;;;6.07;;
5519;SDS011;2782;52.362;10.012;2023-04-24T02:24:29;10.63;;;5.67;;
5519;SDS011;2782;52.362;10.012;2023-04-24T02:25:30;10.15;;;5.55;;
5519;SDS011;2782;52.362;10.012;2023-04-24T02:26:31;9.40;;;5.30;;
5519;SDS011;2782;52.362;10.012;2023-04-24T02:27:33;12.10;;;5.60;;
5519;SDS011;2782;52.362;10.012;2023-04-24T02:28:33;9.00;;;4.77;;
5519;SDS011;2782;52.362;10.012;2023-04-24T02:29:35;9.02;;;5.78;;
5519;SDS011;2782;52.362;10.012;2023-04-24T02:30:35;9.00;;;5.40;;
5519;SDS011;2782;52.362;10.012;2023-04-24T02:31:37;9.77;;;5.80;;
5519;SDS011;2782;52.362;10.012;2023-04-24T02:32:38;7.70;;;4.73;;
5519;SDS011;2782;52.362;10.012;2023-04-24T02:33:40;9.25;;;4.97;;
5519;SDS011;2782;52.362;10.012;2023-04-24T02:34:40;6.60;;;4.10;;
5519;SDS011;2782;52.362;10.012;2023-04-24T02:35:42;12.30;;;5.80;;
5519;SDS011;2782;52.362;10.012;2023-04-24T02:36:42;8.80;;;5.17;;
5519;SDS011;2782;52.362;10.012;2023-04-24T02:37:44;9.40;;;5.15;;
5519;SDS011;2782;52.362;10.012;2023-04-24T02:38:45;9.17;;;5.50;;
5519;SDS011;2782;52.362;10.012;2023-04-24T02:39:47;8.20;;;5.10;;
5519;SDS011;2782;52.362;10.012;2023-04-24T02:40:48;8.40;;;5.00;;
5519;SDS011;2782;52.362;10.012;2023-04-24T02:41:50;9.13;;;4.85;;
5519;SDS011;2782;52.362;10.012;2023-04-24T02:42:50;9.67;;;5.40;;
5519;SDS011;2782;52.362;10.012;2023-04-24T02:43:52;7.85;;;4.97;;
5519;SDS011;2782;52.362;10.012;2023-04-24T02:44:52;9.10;;;5.00;;
5519;SDS011;2782;52.362;10.012;2023-04-24T02:45:54;7.38;;;4.57;;
5519;SDS011;2782;52.362;10.012;2023-04-24T02:46:55;10.33;;;4.90;;
5519;SDS011;2782;52.362;10.012;2023-04-24T02:47:56;9.98;;;5.15;;
5519;SDS011;2782;52.362;10.012;2023-04-24T02:48:57;7.20;;;4.50;;
5519;SDS011;2782;52.362;10.012;2023-04-24T02:49:58;9.57;;;4.40;;
5519;SDS011;2782;52.362;10.012;2023-04-24T02:50:59;7.10;;;4.40;;
5519;SDS011;2782;52.362;10.012;2023-04-24T02:52:00;6.05;;;4.18;;
5519;SDS011;2782;52.362;10.012;2023-04-24T02:53:01;7.07;;;4.40;;
5519;SDS011;2782;52.362;10.012;2023-04-24T02:54:03;8.00;;;4.85;;
5519;SDS011;2782;52.362;10.012;2023-04-24T02:55:05;7.90;;;4.50;;
5519;SDS011;2782;52.362;10.012;2023-04-24T02:56:07;9.95;;;4.80;;
5519;SDS011;2782;52.362;10.012;2023-04-24T02:57:08;8.33;;;5.00;;
5519;SDS011;2782;52.362;10.012;2023-04-24T02:58:10;6.90;;;4.07;;
5519;SDS011;2782;52.362;10.012;2023-04-24T02:59:12;6.65;;;4.30;;
5519;SDS011;2782;52.362;10.012;2023-04-24T03:00:14;7.32;;;3.85;;
5519;SDS011;2782;52.362;10.012;2023-04-24T03:01:15;7.22;;;4.35;;
5519;SDS011;2782;52.362;10.012;2023-04-24T03:02:17;5.78;;;4.15;;
5519;SDS011;2782;52.362;10.012;2023-04-24T03:03:18;7.37;;;4.03;;
5519;SDS011;2782;52.362;10.012;2023-04-24T03:04:20;7.13;;;4.00;;
5519;SDS011;2782;52.362;10.012;2023-04-24T03:05:22;8.35;;;5.05;;
5519;SDS011;2782;52.362;10.012;2023-04-24T03:06:23;6.95;;;3.80;;
5519;SDS011;2782;52.362;10.012;2023-04-24T03:07:26;6.95;;;4.82;;
5519;SDS011;2782;52.362;10.012;2023-04-24T03:08:27;7.23;;;4.10;;
5519;SDS011;2782;52.362;10.012;2023-04-24T03:09:29;7.03;;;4.35;;
5519;SDS011;2782;52.362;10.012;2023-04-24T03:10:31;6.67;;;3.87;;
5519;SDS011;2782;52.362;10.012;2023-04-24T03:11:33;5.85;;;3.75;;
5519;SDS011;2782;52.362;10.012;2023-04-24T03:12:33;6.97;;;4.27;;
5519;SDS011;2782;52.362;10.012;2023-04-24T03:13:35;7.25;;;4.10;;
5519;SDS011;2782;52.362;10.012;2023-04-24T03:14:35;7.93;;;4.30;;
5519;SDS011;2782;52.362;10.012;2023-04-24T03:15:37;7.55;;;3.60;;
5519;SDS011;2782;52.362;10.012;2023-04-24T03:16:38;4.63;;;3.23;;
5519;SDS011;2782;52.362;10.012;2023-04-24T03:17:39;6.40;;;3.95;;
5519;SDS011;2782;52.362;10.012;2023-04-24T03:18:40;7.87;;;3.73;;
5519;SDS011;2782;52.362;10.012;2023-04-24T03:19:41;5.80;;;3.80;;
5519;SDS011;2782;52.362;10.012;2023-04-24T03:20:42;6.03;;;3.83;;
5519;SDS011;2782;52.362;10.012;2023-04-24T03:21:46;5.30;;;3.42;;
5519;SDS011;2782;52.362;10.012;2023-04-24T03:22:46;5.20;;;3.17;;
5519;SDS011;2782;52.362;10.012;2023-04-24T03:23:48;5.45;;;3.40;;
5519;SDS011;2782;52.362;10.012;2023-04-24T03:24:49;6.20;;;3.50;;
5519;SDS011;2782;52.362;10.012;2023-04-24T03:25:52;7.55;;;3.80;;
5519;SDS011;2782;52.362;10.012;2023-04-24T03:26:52;5.88;;;3.88;;
5519;SDS011;2782;52.362;10.012;2023-04-24T03:27:54;6.80;;;4.10;;
5519;SDS011;2782;52.362;10.012;2023-04-24T03:28:54;5.17;;;3.53;;
5519;SDS011;2782;52.362;10.012;2023-04-24T03:29:56;7.18;;;3.97;;
5519;SDS011;2782;52.362;10.012;2023-04-24T03:30:57;6.03;;;3.30;;
5519;SDS011;2782;52.362;10.012;2023-04-24T03:31:58;4.97;;;3.30;;
5519;SDS011;2782;52.362;10.012;2023-04-24T03:32:59;5.53;;;3.77;;
5519;SDS011;2782;52.362;10.012;2023-04-24T03:34:01;4.07;;;2.95;;
5519;SDS011;2782;52.362;10.012;2023-04-24T03:35:02;5.63;;;3.03;;
5519;SDS011;2782;52.362;10.012;2023-04-24T03:36:04;3.90;;;2.70;;
5519;SDS011;2782;52.362;10.012;2023-04-24T03:37:06;9.07;;;3.72;;
5519;SDS011;2782;52.362;10.012;2023-04-24T03:38:06;5.87;;;3.03;;
5519;SDS011;2782;52.362;10.012;2023-04-24T03:39:08;4.63;;;3.30;;
5519;SDS011;2782;52.362;10.012;2023-04-24T03:40:09;7.43;;;3.60;;
5519;SDS011;2782;52.362;10.012;2023-04-24T03:41:12;8.35;;;4.20;;
5519;SDS011;2782;52.362;10.012;2023-04-24T03:42:12;5.50;;;3.40;;
5519;SDS011;2782;52.362;10.012;2023-04-24T03:43:15;5.38;;;3.42;;
5519;SDS011;2782;52.362;10.012;2023-04-24T03:44:15;4.27;;;3.37;;
5519;SDS011;2782;52.362;10.012;2023-04-24T03:45:17;4.75;;;3.05;;
5519;SDS011;2782;52.362;10.012;2023-04-24T03:46:17;5.57;;;3.33;;
5519;SDS011;2782;52.362;10.012;2023-04-24T03:47:19;4.90;;;3.40;;
5519;SDS011;2782;52.362;10.012;2023-04-24T03:48:20;6.13;;;3.13;;
5519;SDS011;2782;52.362;10.012;2023-04-24T03:49:21;4.97;;;3.22;;
5519;SDS011;2782;52.362;10.012;2023-04-24T03:50:22;5.77;;;3.33;;
5519;SDS011;2782;52.362;10.012;2023-04-24T03:51:24;4.82;;;3.00;;
5519;SDS011;2782;52.362;10.012;2023-04-24T03:52:25;3.95;;;2.70;;
5519;SDS011;2782;52.362;10.012;2023-04-24T03:53:26;3.88;;;2.70;;
5519;SDS011;2782;52.362;10.012;2023-04-24T03:54:27;6.03;;;3.17;;
5519;SDS011;2782;52.362;10.012;2023-04-24T03:55:29;4.97;;;2.92;;
5519;SDS011;2782;52.362;10.012;2023-04-24T03:56:31;4.20;;;2.30;;
5519;SDS011;2782;52.362;10.012;2023-04-24T03:57:32;4.35;;;3.20;;
5519;SDS011;2782;52.362;10.012;2023-04-24T03:58:33;5.20;;;2.67;;
5519;SDS011;2782;52.362;10.012;2023-04-24T03:59:35;3.33;;;2.40;;
5519;SDS011;2782;52.362;10.012;2023-04-24T04:00:35;4.20;;;2.97;;
5519;SDS011;2782;52.362;10.012;2023-04-24T04:01:37;5.15;;;3.05;;
5519;SDS011;2782;52.362;10.012;2023-04-24T04:02:38;5.47;;;2.80;;
5519;SDS011;2782;52.362;10.012;2023-04-24T04:03:39;3.85;;;2.38;;
5519;SDS011;2782;52.362;10.012;2023-04-24T04:04:40;5.30;;;3.00;;
5519;SDS011;2782;52.362;10.012;2023-04-24T04:05:41;4.72;;;3.00;;
5519;SDS011;2782;52.362;10.012;2023-04-24T04:06:42;5.17;;;2.90;;
5519;SDS011;2782;52.362;10.012;2023-04-24T04:07:46;7.85;;;3.10;;
5519;SDS011;2782;52.362;10.012;2023-04-24T04:08:47;4.35;;;2.65;;
5519;SDS011;2782;52.362;10.012;2023-04-24T04:09:48;4.53;;;3.13;;
5519;SDS011;2782;52.362;10.012;2023-04-24T04:10:50;4.93;;;3.00;;
5519;SDS011;2782;52.362;10.012;2023-04-24T04:11:52;4.80;;;2.70;;
5519;SDS011;2782;52.362;10.012;2023-04-24T04:12:53;4.07;;;2.50;;
5519;SDS011;2782;52.362;10.012;2023-04-24T04:13:54;4.33;;;3.03;;
5519;SDS011;2782;52.362;10.012;2023-04-24T04:14:56;4.78;;;2.75;;
5519;SDS011;2782;52.362;10.012;2023-04-24T04:15:57;4.70;;;2.90;;
5519;SDS011;2782;52.362;10.012;2023-04-24T04:16:58;5.10;;;2.53;;
5519;SDS011;2782;52.362;10.012;2023-04-24T04:18:00;3.15;;;2.30;;
5519;SDS011;2782;52.362;10.012;2023-04-24T04:19:01;3.53;;;2.60;;
5519;SDS011;2782;52.362;10.012;2023-04-24T04:20:03;2.85;;;2.38;;
5519;SDS011;2782;52.362;10.012;2023-04-24T04:21:07;2.97;;;2.13;;
5519;SDS011;2782;52.362;10.012;2023-04-24T04:22:08;4.20;;;2.33;;
5519;SDS011;2782;52.362;10.012;2023-04-24T04:23:10;2.92;;;2.42;;
5519;SDS011;2782;52.362;10.012;2023-04-24T04:24:11;3.77;;;2.40;;
5519;SDS011;2782;52.362;10.012;2023-04-24T04:25:12;5.13;;;2.35;;
5519;SDS011;2782;52.362;10.012;2023-04-24T04:26:13;2.93;;;2.30;;
5519;SDS011;2782;52.362;10.012;2023-04-24T04:27:16;4.80;;;2.95;;
5519;SDS011;2782;52.362;10.012;2023-04-24T04:28:18;3.38;;;2.55;;
5519;SDS011;2782;52.362;10.012;2023-04-24T04:29:20;4.50;;;2.53;;
5519;SDS011;2782;52.362;10.012;2023-04-24T04:30:22;4.30;;;2.42;;
5519;SDS011;2782;52.362;10.012;2023-04-24T04:31:24;2.88;;;2.13;;
5519;SDS011;2782;52.362;10.012;2023-04-24T04:32:25;3.47;;;2.20;;
5519;SDS011;2782;52.362;10.012;2023-04-24T04:33:27;2.42;;;2.22;;
5519;SDS011;2782;52.362;10.012;2023-04-24T04:34:27;2.00;;;1.80;;
5519;SDS011;2782;52.362;10.012;2023-04-24T04:35:29;4.18;;;2.40;;
5519;SDS011;2782;52.362;10.012;2023-04-24T04:36:30;4.10;;;2.43;;
5519;SDS011;2782;52.362;10.012;2023-04-24T04:37:32;3.70;;;2.35;;
5519;SDS011;2782;52.362;10.012;2023-04-24T04:38:33;3.38;;;2.28;;
5519;SDS011;2782;52.362;10.012;2023-04-24T04:39:35;3.08;;;1.92;;
5519;SDS011;2782;52.362;10.012;2023-04-24T04:40:36;2.43;;;2.00;;
5519;SDS011;2782;52.362;10.012;2023-04-24T04:41:37;3.50;;;2.08;;
5519;SDS011;2782;52.362;10.012;2023-04-24T04:42:41;2.65;;;2.03;;
5519;SDS011;2782;52.362;10.012;2023-04-24T04:43:46;3.28;;;1.95;;
5519;SDS011;2782;52.362;10.012;2023-04-24T04:44:47;4.22;;;2.85;;
5519;SDS011;2782;52.362;10.012;2023-04-24T04:45:50;5.10;;;2.80;;
5519;SDS011;2782;52.362;10.012;2023-04-24T04:46:51;3.50;;;2.22;;
5519;SDS011;2782;52.362;10.012;2023-04-24T04:47:56;4.40;;;2.20;;
5519;SDS011;2782;52.362;10.012;2023-04-24T04:48:58;3.97;;;1.83;;
5519;SDS011;2782;52.362;10.012;2023-04-24T04:49:59;9.77;;;2.35;;
5519;SDS011;2782;52.362;10.012;2023-04-24T04:51:01;8.63;;;2.35;;
5519;SDS011;2782;52.362;10.012;2023-04-24T04:52:01;11.13;;;1.90;;
5519;SDS011;2782;52.362;10.012;2023-04-24T04:53:03;4.65;;;1.95;;
5519;SDS011;2782;52.362;10.012;2023-04-24T04:54:04;7.10;;;2.23;;
5519;SDS011;2782;52.362;10.012;2023-04-24T04:55:06;3.53;;;2.00;;
5519;SDS011;2782;52.362;10.012;2023-04-24T04:56:07;2.85;;;1.70;;
5519;SDS011;2782;52.362;10.012;2023-04-24T04:57:09;3.85;;;2.05;;
5519;SDS011;2782;52.362;10.012;2023-04-24T04:58:11;8.75;;;2.42;;
5519;SDS011;2782;52.362;10.012;2023-04-24T04:59:13;7.43;;;2.30;;
5519;SDS011;2782;52.362;10.012;2023-04-24T05:00:14;8.00;;;2.00;;
5519;SDS011;2782;52.362;10.012;2023-04-24T05:01:16;11.68;;;2.22;;
5519;SDS011;2782;52.362;10.012;2023-04-24T05:02:17;7.85;;;1.90;;
5519;SDS011;2782;52.362;10.012;2023-04-24T05:03:19;4.80;;;1.90;;
5519;SDS011;2782;52.362;10.012;2023-04-24T05:04:19;4.40;;;2.03;;
5519;SDS011;2782;52.362;10.012;2023-04-24T05:05:21;9.93;;;2.00;;
5519;SDS011;2782;52.362;10.012;2023-04-24T05:06:22;10.27;;;1.90;;
5519;SDS011;2782;52.362;10.012;2023-04-24T05:07:24;4.68;;;2.22;;
5519;SDS011;2782;52.362;10.012;2023-04-24T05:08:24;4.30;;;1.90;;
5519;SDS011;2782;52.362;10.012;2023-04-24T05:09:26;7.85;;;2.00;;
5519;SDS011;2782;52.362;10.012;2023-04-24T05:10:29;4.95;;;1.80;;
5519;SDS011;2782;52.362;10.012;2023-04-24T05:11:30;7.25;;;2.47;;
5519;SDS011;2782;52.362;10.012;2023-04-24T05:12:31;4.20;;;2.17;;
5519;SDS011;2782;52.362;10.012;2023-04-24T05:13:34;6.05;;;2.05;;
5519;SDS011;2782;52.362;10.012;2023-04-24T05:14:35;6.85;;;2.13;;
5519;SDS011;2782;52.362;10.012;2023-04-24T05:15:37;8.60;;;1.70;;
5519;SDS011;2782;52.362;10.012;2023-04-24T05:16:37;5.70;;;2.20;;
5519;SDS011;2782;52.362;10.012;2023-04-24T05:17:39;7.65;;;1.90;;
5519;SDS011;2782;52.362;10.012;2023-04-24T05:18:40;3.57;;;1.77;;
5519;SDS011;2782;52.362;10.012;2023-04-24T05:19:42;7.13;;;2.00;;
5519;SDS011;2782;52.362;10.012;2023-04-24T05:20:43;5.10;;;1.85;;
5519;SDS011;2782;52.362;10.012;2023-04-24T05:21:45;8.77;;;1.75;;
5519;SDS011;2782;52.362;10.012;2023-04-24T05:22:45;6.33;;;2.10;;
5519;SDS011;2782;52.362;10.012;2023-04-24T05:23:47;15.48;;;2.10;;
5519;SDS011;2782;52.362;10.012;2023-04-24T05:24:48;8.80;;;2.27;;
5519;SDS011;2782;52.362;10.012;2023-04-24T05:25:50;6.30;;;2.03;;
5519;SDS011;2782;52.362;10.012;2023-04-24T05:26:51;8.03;;;1.53;;
5519;SDS011;2782;52.362;10.012;2023-04-24T05:27:52;5.53;;;1.67;;
5519;SDS011;2782;52.362;10.012;2023-04-24T05:28:54;4.20;;;1.43;;
5519;SDS011;2782;52.362;10.012;2023-04-24T05:29:56;3.00;;;1.30;;
5519;SDS011;2782;52.362;10.012;2023-04-24T05:30:57;11.00;;;2.40;;
5519;SDS011;2782;52.362;10.012;2023-04-24T05:31:59;75.75;;;2.58;;
5519;SDS011;2782;52.362;10.012;2023-04-24T05:33:01;5.93;;;1.70;;
5519;SDS011;2782;52.362;10.012;2023-04-24T05:34:07;6.00;;;1.65;;
5519;SDS011;2782;52.362;10.012;2023-04-24T05:35:17;13.82;;;1.45;;
5519;SDS011;2782;52.362;10.012;2023-04-24T05:36:19;6.05;;;2.38;;
5519;SDS011;2782;52.362;10.012;2023-04-24T05:37:19;5.17;;;1.50;;
5519;SDS011;2782;52.362;10.012;2023-04-24T05:38:21;4.30;;;1.60;;
5519;SDS011;2782;52.362;10.012;2023-04-24T05:39:21;6.80;;;1.53;;
5519;SDS011;2782;52.362;10.012;2023-04-24T05:40:24;3.88;;;1.55;;
5519;SDS011;2782;52.362;10.012;2023-04-24T05:41:26;3.97;;;1.45;;
5519;SDS011;2782;52.362;10.012;2023-04-24T05:42:27;5.60;;;1.40;;
5519;SDS011;2782;52.362;10.012;2023-04-24T05:43:28;10.05;;;1.80;;
5519;SDS011;2782;52.362;10.012;2023-04-24T05:44:30;6.93;;;1.03;;
5519;SDS011;2782;52.362;10.012;2023-04-24T05:45:32;2.92;;;1.00;;
5519;SDS011;2782;52.362;10.012;2023-04-24T05:46:35;4.68;;;0.95;;
5519;SDS011;2782;52.362;10.012;2023-04-24T05:47:37;6.30;;;1.40;;
5519;SDS011;2782;52.362;10.012;2023-04-24T05:48:38;4.70;;;1.10;;
5519;SDS011;2782;52.362;10.012;2023-04-24T05:49:39;4.57;;;1.67;;
5519;SDS011;2782;52.362;10.012;2023-04-24T05:50:40;3.87;;;1.50;;
5519;SDS011;2782;52.362;10.012;2023-04-24T05:51:41;5.57;;;1.33;;
5519;SDS011;2782;52.362;10.012;2023-04-24T05:52:42;4.50;;;1.77;;
5519;SDS011;2782;52.362;10.012;2023-04-24T05:53:44;4.47;;;1.48;;
5519;SDS011;2782;52.362;10.012;2023-04-24T05:54:44;2.50;;;1.40;;
5519;SDS011;2782;52.362;10.012;2023-04-24T05:55:46;3.17;;;1.35;;
5519;SDS011;2782;52.362;10.012;2023-04-24T05:56:48;6.68;;;1.17;;
5519;SDS011;2782;52.362;10.012;2023-04-24T05:57:50;2.88;;;1.10;;
5519;SDS011;2782;52.362;10.012;2023-04-24T05:58:50;4.70;;;1.37;;
5519;SDS011;2782;52.362;10.012;2023-04-24T05:59:53;7.38;;;1.15;;
5519;SDS011;2782;52.362;10.012;2023-04-24T06:00:54;5.88;;;0.95;;
5519;SDS011;2782;52.362;10.012;2023-04-24T06:01:57;4.53;;;1.20;;
5519;SDS011;2782;52.362;10.012;2023-04-24T06:02:58;5.70;;;1.43;;
5519;SDS011;2782;52.362;10.012;2023-04-24T06:04:00;5.22;;;1.00;;
5519;SDS011;2782;52.362;10.012;2023-04-24T06:05:00;3.67;;;0.97;;
5519;SDS011;2782;52.362;10.012;2023-04-24T06:06:02;9.50;;;1.95;;
5519;SDS011;2782;52.362;10.012;2023-04-24T06:07:03;3.90;;;1.47;;
5519;SDS011;2782;52.362;10.012;2023-04-24T06:08:05;5.47;;;1.30;;
5519;SDS011;2782;52.362;10.012;2023-04-24T06:09:06;6.03;;;2.22;;
5519;SDS011;2782;52.362;10.012;2023-04-24T06:10:08;3.92;;;1.17;;
5519;SDS011;2782;52.362;10.012;2023-04-24T06:11:10;3.90;;;1.10;;
5519;SDS011;2782;52.362;10.012;2023-04-24T06:12:11;8.10;;;1.38;;
5519;SDS011;2782;52.362;10.012;2023-04-24T06:13:12;5.50;;;1.53;;
5519;SDS011;2782;52.362;10.012;2023-04-24T06:14:13;1.95;;;0.90;;